Station: Macquarie Island  

  Atmospheric Gas Attenuation - ITU Rec 676-11   ----------------- dB/100km -----------------
Date Time Temp RH % AH g/m3 Dew Point Wind Direction Speed kph Gust kph Barometer mB Rainfall Since 9am 24GHz 47GHz 76GHz 122GHz 134GHz 241GHz
04/05 21:40 5.8 96 6.88 5.2 33 37 1004.9 1 16.3 25.0 36.2 95.0 84.1 287.3
04/05 21:30 5.8 96 6.88 5.2 33 37 1004.9 1 16.3 25.0 36.2 95.0 84.1 287.3
04/05 21:20 5.8 96 6.88 5.2 35 39 1005 1 16.3 25.0 36.2 95.0 84.1 287.3
04/05 21:10 5.8 96 6.88 5.2 33 35 1005.1 1 16.3 25.0 36.2 95.0 84.1 287.3
04/05 21:00 5.8 96 6.88 5.2 33 35 1005.1 1 16.3 25.0 36.2 95.0 84.1 287.3
04/05 20:50 5.7 96 6.84 5.1 37 39 1005.1 1 16.2 25.0 36.1 94.7 83.6 285.8
04/05 20:40 5.8 95 6.81 5.1 35 39 1005.1 1 16.1 24.9 36.0 94.3 83.1 284.0
04/05 20:30 6 96 6.97 5.4 30 35 1005.2 1 16.4 25.1 36.5 95.8 85.1 290.9
04/05 20:20 5.9 95 6.85 5.2 30 33 1005.2 1 16.2 25.0 36.1 94.6 83.6 285.5
04/05 20:10 6 95 6.9 5.3 30 32 1005.7 1 16.3 25.0 36.3 95.1 84.2 287.7
04/05 20:00 6 95 6.9 5.3 26 32 1005.8 1 16.3 25.1 36.3 95.1 84.2 287.7
04/05 19:50 6.1 95 6.94 5.4 22 24 1005.9 1 16.4 25.1 36.4 95.4 84.6 289.3
04/05 19:40 6.1 95 6.94 5.4 20 24 1006.3 1 16.4 25.1 36.4 95.5 84.6 289.4
04/05 19:30 6 95 6.9 5.3 22 24 1006.6 1 16.3 25.1 36.3 95.2 84.2 287.9
04/05 19:20 6 95 6.9 5.3 20 22 1006.5 1 16.3 25.1 36.3 95.1 84.2 287.9
04/05 19:10 6 95 6.9 5.3 20 24 1006.7 1 16.3 25.1 36.3 95.2 84.2 287.9
04/05 19:00 6.1 95 6.94 5.4 20 22 1006.5 1 16.4 25.1 36.4 95.5 84.7 289.4
04/05 18:50 6 94 6.83 5.1 20 22 1006.4 1 16.1 25.0 36.0 94.4 83.3 284.5
04/05 18:40 6.1 94 6.87 5.2 19 20 1006.4 1 16.2 25.0 36.1 94.7 83.7 286.1
04/05 18:30 6 94 6.83 5.1 19 20 1006.4 1 16.1 25.0 36.0 94.4 83.3 284.5
04/05 18:20 6 94 6.83 5.1 20 22 1006.4 1 16.1 25.0 36.0 94.4 83.3 284.5
04/05 18:10 6.1 94 6.87 5.2 19 20 1006.3 1 16.2 25.0 36.1 94.7 83.7 286.0
04/05 18:00 6.1 94 6.87 5.2 20 20 1006.3 1 16.2 25.0 36.1 94.7 83.7 286.0
04/05 17:50 6.1 94 6.87 5.2 19 20 1006.2 1 16.2 25.0 36.1 94.7 83.7 286.0
04/05 17:40 6.1 94 6.87 5.2 17 20 1006.3 1 16.2 25.0 36.1 94.7 83.7 286.0
04/05 17:30 6.1 94 6.87 5.2 19 19 1006 1 16.2 25.0 36.1 94.6 83.7 286.0
04/05 17:20 6.1 93 6.8 5.1 15 17 1006 1 16.1 24.9 35.8 93.9 82.7 282.6
04/05 17:10 6 93 6.75 5 17 17 1005.9 1 16.0 24.8 35.7 93.4 82.1 280.6
04/05 17:00 6 93 6.75 5 15 15 1006.1 1 16.0 24.8 35.7 93.4 82.1 280.6
04/05 16:50 6.1 93 6.8 5.1 15 15 1006 1 16.1 24.9 35.8 93.9 82.7 282.6
04/05 16:40 6 94 6.83 5.1 15 15 1006 1 16.1 24.9 36.0 94.3 83.2 284.4
04/05 16:30 6 94 6.83 5.1 13 15 1006.3 1 16.1 25.0 36.0 94.4 83.3 284.5
04/05 16:20 6.1 94 6.87 5.2 15 17 1006.2 1 16.2 25.0 36.1 94.7 83.7 286.0
04/05 16:10 6 94 6.83 5.1 15 15 1006 1 16.1 24.9 36.0 94.3 83.2 284.4
04/05 16:00 6 94 6.83 5.1 13 15 1005.8 1 16.1 24.9 36.0 94.3 83.2 284.4
04/05 15:50 6.1 94 6.87 5.2 13 13 1005.6 1 16.2 25.0 36.1 94.6 83.6 285.9
04/05 15:40 6.1 94 6.87 5.2 11 13 1005.8 1 16.2 25.0 36.1 94.6 83.7 285.9
04/05 15:30 6.1 94 6.87 5.2 11 11 1005.8 1 16.2 25.0 36.1 94.6 83.7 285.9
04/05 15:20 6.1 94 6.87 5.2 11 11 1005.6 1 16.2 25.0 36.1 94.6 83.6 285.9
04/05 15:10 6.1 93 6.8 5.1 13 13 1005.3 1 16.1 24.8 35.8 93.8 82.7 282.4
04/05 15:00 6.2 93 6.84 5.2 9 13 1005.4 1 16.1 24.9 35.9 94.1 83.1 284.0
04/05 14:50 6.2 93 6.84 5.2 7 9 1005.4 1 16.1 24.9 35.9 94.1 83.1 284.0
04/05 14:40 6.2 93 6.84 5.2 7 9 1005.7 1 16.1 24.9 35.9 94.2 83.1 284.1
04/05 14:30 6.2 93 6.84 5.2 7 13 1005.7 1 16.1 24.9 35.9 94.2 83.1 284.1
04/05 14:20 6.3 93 6.89 5.3 7 7 1005.8 1 16.3 24.9 36.1 94.6 83.7 286.1
04/05 14:10 6.3 93 6.89 5.3 7 7 1005.8 1 16.3 24.9 36.1 94.6 83.7 286.1
04/05 14:00 6.4 94 7.01 5.5 7 9 1005.7 1 16.5 25.1 36.5 95.8 85.2 291.5
04/05 13:50 6.4 94 7.01 5.5 6 7 1005.9 1 16.5 25.1 36.5 95.8 85.2 291.5
04/05 13:40 6.4 94 7.01 5.5 7 7 1005.8 1 16.5 25.1 36.5 95.8 85.2 291.5
04/05 13:30 6.2 94 6.92 5.3 7 9 1006 1 16.3 25.0 36.3 95.1 84.2 288.0
04/05 13:20 6.4 94 7.01 5.5 6 6 1005.9 1 16.5 25.1 36.5 95.8 85.2 291.5
04/05 13:10 6.4 94 7.01 5.5 4 6 1005.8 1 16.5 25.1 36.5 95.8 85.2 291.5
04/05 13:00 6.4 94 7.01 5.5 6 7 1005.8 1 16.5 25.1 36.5 95.8 85.2 291.5
04/05 12:50 6.3 94 6.96 5.4 4 6 1005.7 1 16.4 25.1 36.4 95.4 84.7 289.5
04/05 12:40 6.4 94 7.01 5.5 6 6 1005.8 1 16.5 25.1 36.5 95.8 85.2 291.5
04/05 12:30 6.3 94 6.96 5.4 7 9 1005.7 1 16.4 25.1 36.4 95.4 84.7 289.5
04/05 12:20 6.3 94 6.96 5.4 7 7 1005.6 1 16.4 25.1 36.4 95.4 84.7 289.4
04/05 12:10 6.3 94 6.96 5.4 0 0 1005.8 1 16.4 25.1 36.4 95.4 84.7 289.5
04/05 12:00 6.3 94 6.96 5.4 6 7 1006.1 0.8 16.4 25.1 36.4 95.4 84.7 289.6
04/05 11:50 6.3 95 7.04 5.6 7 7 1006.2 0.8 16.6 25.2 36.7 96.3 85.8 293.4
04/05 11:40 6.3 94 6.96 5.4 9 9 1006.5 0.8 16.4 25.1 36.4 95.4 84.7 289.6
04/05 11:30 6.2 95 6.99 5.5 6 7 1006.3 0.6 16.5 25.2 36.6 95.9 85.2 291.4
04/05 11:20 6.2 95 6.99 5.5 6 7 1006.2 0.6 16.5 25.2 36.6 95.9 85.2 291.4
04/05 11:10 6.1 95 6.94 5.4 9 11 1006.6 0.6 16.4 25.1 36.4 95.5 84.7 289.5
04/05 11:00 6.1 95 6.94 5.4 11 13 1006.9 0.6 16.4 25.1 36.4 95.5 84.7 289.5
04/05 10:50 6.1 95 6.94 5.4 13 15 1006.9 0.4 16.4 25.1 36.4 95.5 84.7 289.5
04/05 10:40 6 95 6.9 5.3 15 17 1007 0.4 16.3 25.1 36.3 95.2 84.3 288.0
04/05 10:30 6 95 6.9 5.3 15 17 1006.9 0.4 16.3 25.1 36.3 95.2 84.3 288.0
04/05 10:20 6 95 6.9 5.3 11 13 1006.7 0.4 16.3 25.1 36.3 95.2 84.2 287.9
04/05 10:10 6 95 6.9 5.3 13 13 1006.6 0.4 16.3 25.1 36.3 95.2 84.2 287.9
04/05 10:00 6 95 6.9 5.3 13 13 1006.7 0.4 16.3 25.1 36.3 95.2 84.2 287.9
04/05 09:50 6 95 6.9 5.3 15 15 1006.9 0.4 16.3 25.1 36.3 95.2 84.3 288.0
04/05 09:40 6 95 6.9 5.3 13 15 1006.9 0.4 16.3 25.1 36.3 95.2 84.3 288.0
04/05 09:30 6 95 6.9 5.3 15 15 1007 0.4 16.3 25.1 36.3 95.2 84.3 288.0
04/05 09:20 5.9 94 6.78 5 15 17 1007 0.2 16.0 24.9 35.9 94.0 82.7 282.6
04/05 09:10 6 94 6.83 5.1 17 17 1007.3 0 16.1 25.0 36.0 94.5 83.3 284.7
04/05 09:00 5.9 94 6.78 5 15 17 1007.4 0 16.0 24.9 35.9 94.0 82.8 282.7
04/05 08:50 5.9 94 6.78 5 15 15 1007.7 3.4 16.0 25.0 35.9 94.1 82.8 282.8
04/05 08:40 5.9 94 6.78 5 17 19 1007.9 3.4 16.0 25.0 35.9 94.1 82.8 282.8
04/05 08:30 5.8 94 6.74 4.9 17 20 1007.7 3.4 15.9 24.9 35.8 93.7 82.3 281.2
04/05 08:20 5.9 93 6.71 4.9 19 20 1007.5 3.4 15.9 24.8 35.6 93.3 81.8 279.4
04/05 08:10 5.8 93 6.67 4.8 19 20 1007.4 3.4 15.8 24.8 35.5 92.9 81.4 277.8
04/05 08:00 5.7 93 6.62 4.7 15 19 1007.4 3.4 15.7 24.7 35.3 92.5 80.8 275.8
04/05 07:50 5.8 93 6.67 4.8 13 15 1007.7 3.4 15.8 24.8 35.5 93.0 81.4 277.9
04/05 07:40 5.7 93 6.62 4.7 19 20 1007.8 3.4 15.7 24.7 35.3 92.5 80.8 275.9
04/05 07:30 5.8 93 6.67 4.8 20 24 1007.8 3.4 15.8 24.8 35.5 93.0 81.4 277.9
04/05 07:20 5.8 92 6.59 4.6 20 22 1007.9 3.4 15.6 24.7 35.2 92.1 80.3 274.1
04/05 07:10 5.7 92 6.55 4.5 22 24 1008 3.4 15.5 24.6 35.1 91.8 79.9 272.6
04/05 07:00 5.9 91 6.57 4.5 26 28 1007.9 3.4 15.6 24.6 35.0 91.8 79.9 272.8
04/05 06:50 5.8 91 6.52 4.4 22 24 1008.1 3.4 15.5 24.6 34.9 91.4 79.4 270.8
04/05 06:40 5.8 90 6.45 4.3 20 22 1007.8 3.4 15.3 24.4 34.6 90.6 78.4 267.4
04/05 06:30 5.8 90 6.45 4.3 24 28 1007.6 3.4 15.3 24.4 34.6 90.5 78.4 267.4
04/05 06:20 5.8 90 6.45 4.3 22 24 1007.4 3.4 15.3 24.4 34.6 90.5 78.4 267.3
04/05 06:10 5.8 90 6.45 4.3 20 24 1007.3 3.4 15.3 24.4 34.6 90.5 78.4 267.3
04/05 06:00 5.8 89 6.38 4.1 28 30 1007.3 3.4 15.2 24.3 34.3 89.7 77.4 264.0
04/05 05:50 5.7 89 6.34 4 22 26 1007.2 3.4 15.1 24.3 34.2 89.4 77.0 262.4
04/05 05:40 5.8 89 6.38 4.1 28 30 1007.3 3.4 15.2 24.3 34.3 89.7 77.4 264.0
04/05 05:30 5.8 89 6.38 4.1 28 32 1007.5 3.4 15.2 24.3 34.3 89.8 77.4 264.1
04/05 05:20 5.7 89 6.34 4 28 30 1007.4 3.4 15.1 24.3 34.2 89.4 77.0 262.5
04/05 05:10 5.7 89 6.34 4 26 28 1007.4 3.4 15.1 24.3 34.2 89.4 77.0 262.5

Last Refresh: 04-May-2026 21:18:12

Bureau of Meteorology